Terminal Aerodrome Forecast
Issued by NWS Wilmington, OH

Current Version | Previous Version | Text Only | Print | Product List | Glossary On
Versions: 1 2 3 4 5 6 7 8 9 10 11 12 13 14 15 16 17 18 19 20 21
000
FTUS41 KILN 282300 RRA
TAFDAY
TAF
KDAY 282341Z 2900/2924 17009KT P6SM SCT150
     FM291100 19011KT P6SM BKN040
     FM291500 20013G22KT P6SM OVC025
     FM292100 20013KT 5SM -SHRA BR SCT006 OVC010=

USA.gov is the U.S. government's official web portal to all federal, state and local government web resources and services.